Time;durP1;ratioP1;P1;durP2;ratioP2;P2;SDS_P1;SDS_P2;PMS_P1;PMS_P2;Temp;Humidity;BMP_temperature;BMP_pressure;BME280_temperature;BME280_humidity;BME280_pressure;Samples;Min_cycle;Max_cycle;Signal;HPM_P1;HPM_P2
2022/03/02 00:01:01;;;;;;;18.07;7.80;;;-4.20;96.30;;;;;;4917988;29;20537;-75
2022/03/02 00:03:27;;;;;;;15.73;9.03;;;-4.30;96.30;;;;;;4918071;29;20537;-75
2022/03/02 00:05:52;;;;;;;17.20;8.20;;;-4.40;96.30;;;;;;4917987;29;20982;-75
2022/03/02 00:08:18;;;;;;;18.57;8.80;;;-4.40;96.30;;;;;;4900647;29;20287;-75
2022/03/02 00:10:43;;;;;;;14.80;7.80;;;-4.50;96.30;;;;;;4917821;29;20199;-75
2022/03/02 00:13:09;;;;;;;16.43;8.90;;;-4.60;96.30;;;;;;4917862;29;20176;-75
2022/03/02 00:15:35;;;;;;;16.30;7.50;;;-4.80;96.30;;;;;;4900850;29;20180;-75
2022/03/02 00:18:01;;;;;;;15.13;8.70;;;-4.80;96.30;;;;;;4917574;29;20180;-75
2022/03/02 00:20:27;;;;;;;12.53;7.80;;;-4.70;96.30;;;;;;4917661;29;20179;-75
2022/03/02 00:22:52;;;;;;;19.70;8.87;;;-4.60;96.30;;;;;;4917710;29;20176;-75
2022/03/02 00:25:19;;;;;;;17.50;9.10;;;-4.60;96.30;;;;;;4900572;29;20463;-75
2022/03/02 00:27:45;;;;;;;24.33;9.63;;;-4.60;96.30;;;;;;4917413;29;20264;-75
2022/03/02 00:30:11;;;;;;;16.20;8.30;;;-4.70;96.30;;;;;;4917480;29;20496;-76
2022/03/02 00:32:37;;;;;;;10.03;6.93;;;-4.70;96.30;;;;;;4917426;29;20563;-75
2022/03/02 00:35:03;;;;;;;16.13;7.67;;;-4.60;96.30;;;;;;4917388;29;20179;-76
2022/03/02 00:37:29;;;;;;;16.07;7.60;;;-4.60;96.30;;;;;;4917197;29;20443;-76
2022/03/02 00:39:54;;;;;;;11.93;7.80;;;-4.50;96.30;;;;;;4900374;29;20935;-75
2022/03/02 00:42:19;;;;;;;11.17;7.70;;;-4.50;96.30;;;;;;4900002;29;20204;-75
2022/03/02 00:44:45;;;;;;;11.90;7.00;;;-4.50;96.30;;;;;;4917859;29;20773;-75
2022/03/02 00:47:11;;;;;;;11.03;7.90;;;-4.40;96.30;;;;;;4924037;29;20197;-75
2022/03/02 00:49:37;;;;;;;14.20;7.97;;;-4.40;96.30;;;;;;4909338;29;20177;-75
2022/03/02 05:00:37;;;;;;;9.30;6.10;;;-5.50;96.30;;;;;;5802871;23;20490;-74
2022/03/02 05:03:05;;;;;;;14.93;8.40;;;-5.50;96.30;;;;;;4935965;29;20427;-75
2022/03/02 05:05:33;;;;;;;30.40;14.60;;;-5.50;96.30;;;;;;4936034;29;20999;-75
2022/03/02 05:07:58;;;;;;;21.57;11.80;;;-5.60;96.30;;;;;;4935625;29;20407;-75
2022/03/02 05:10:25;;;;;;;12.07;6.90;;;-5.60;96.30;;;;;;4935782;29;20912;-76
2022/03/02 05:12:51;;;;;;;11.50;7.47;;;-5.50;96.30;;;;;;4935750;29;20645;-75
2022/03/02 05:15:17;;;;;;;10.40;6.53;;;-5.40;96.30;;;;;;4936095;29;20510;-75
2022/03/02 05:17:44;;;;;;;10.37;6.40;;;-5.40;96.30;;;;;;4921052;29;20183;-76
2022/03/02 05:20:11;;;;;;;15.27;6.90;;;-5.50;96.30;;;;;;4925876;29;20419;-78
2022/03/02 05:22:37;;;;;;;12.47;7.03;;;-5.50;96.30;;;;;;4919950;29;20427;-78
2022/03/02 05:25:04;;;;;;;21.20;7.53;;;-5.40;96.30;;;;;;4937138;29;20503;-77
2022/03/02 05:27:30;;;;;;;11.20;6.60;;;-5.40;96.30;;;;;;4918123;29;21080;-78
2022/03/02 05:29:56;;;;;;;11.83;6.47;;;-5.30;96.30;;;;;;4918986;29;20415;-77
2022/03/02 05:32:21;;;;;;;15.10;5.70;;;-5.30;96.30;;;;;;4918373;29;20196;-78
2022/03/02 05:34:47;;;;;;;16.93;9.87;;;-5.30;96.30;;;;;;4918490;29;20186;-76
2022/03/02 05:37:12;;;;;;;55.07;23.90;;;-5.20;96.30;;;;;;4918418;29;20243;-77
2022/03/02 05:39:38;;;;;;;32.97;17.70;;;-5.20;96.30;;;;;;4914501;29;20187;-77
2022/03/02 05:42:04;;;;;;;20.33;10.30;;;-5.20;96.30;;;;;;4917406;29;20529;-78
2022/03/02 05:44:31;;;;;;;23.40;12.80;;;-5.20;96.30;;;;;;4935291;29;20199;-77
2022/03/02 05:46:56;;;;;;;17.40;10.03;;;-5.20;96.30;;;;;;4935567;29;20422;-77
2022/03/02 05:49:23;;;;;;;17.00;9.30;;;-5.20;96.30;;;;;;4922997;29;20424;-77
2022/03/02 05:51:48;;;;;;;13.80;9.40;;;-5.20;96.30;;;;;;4899987;29;20211;-77
2022/03/02 05:54:14;;;;;;;20.57;10.97;;;-5.20;96.30;;;;;;4899204;29;20420;-77
2022/03/02 05:56:40;;;;;;;13.00;7.90;;;-5.20;96.30;;;;;;4899154;29;20180;-77
2022/03/02 05:59:08;;;;;;;11.13;6.77;;;-5.10;96.30;;;;;;4898431;29;20180;-77
2022/03/02 06:01:34;;;;;;;7.30;5.40;;;-5.00;96.30;;;;;;4917691;29;20463;-77
2022/03/02 06:04:01;;;;;;;13.00;5.97;;;-4.50;96.30;;;;;;4935005;29;20503;-77
2022/03/02 06:06:29;;;;;;;9.60;6.57;;;-4.10;96.30;;;;;;4935145;29;20447;-77
2022/03/02 06:08:55;;;;;;;12.87;7.93;;;-3.60;96.30;;;;;;4934666;29;20411;-76
2022/03/02 06:11:21;;;;;;;16.57;9.07;;;-3.40;96.30;;;;;;4917826;29;20527;-77
2022/03/02 06:13:47;;;;;;;17.77;9.03;;;-3.60;96.30;;;;;;4936007;29;20880;-78
2022/03/02 06:16:13;;;;;;;14.90;8.57;;;-3.70;96.30;;;;;;4943186;29;20231;-78
2022/03/02 06:18:39;;;;;;;11.73;6.27;;;-3.90;96.30;;;;;;4930140;29;20486;-77
2022/03/02 06:21:06;;;;;;;14.97;8.10;;;-4.10;96.30;;;;;;4932601;29;20200;-78
2022/03/02 06:23:33;;;;;;;11.70;7.70;;;-4.20;96.30;;;;;;4948449;29;20741;-79
2022/03/02 06:25:59;;;;;;;12.40;6.87;;;-4.40;96.30;;;;;;4941449;29;20891;-76
2022/03/02 06:28:25;;;;;;;15.37;7.10;;;-4.40;96.30;;;;;;4918347;29;20416;-76
2022/03/02 06:30:51;;;;;;;12.80;7.20;;;-4.30;96.30;;;;;;4936124;29;20689;-77
2022/03/02 06:33:18;;;;;;;8.97;5.90;;;-4.30;96.30;;;;;;4935501;29;20258;-76
2022/03/02 06:35:48;;;;;;;12.07;6.37;;;-4.30;96.30;;;;;;4934799;29;20411;-75
2022/03/02 06:38:14;;;;;;;7.43;4.70;;;-4.20;96.30;;;;;;4934289;29;20448;-75
2022/03/02 06:40:49;;;;;;;10.03;6.00;;;-4.20;96.30;;;;;;4921695;29;20459;-75
2022/03/02 06:43:18;;;;;;;9.60;5.30;;;-4.30;96.30;;;;;;4938891;29;20167;-76
2022/03/02 06:45:50;;;;;;;12.27;5.80;;;-4.30;96.30;;;;;;4922806;29;20462;-76
2022/03/02 06:48:32;;;;;;;10.30;7.00;;;-4.30;96.30;;;;;;4924064;29;20411;-77
2022/03/02 06:51:00;;;;;;;13.43;8.40;;;-4.30;96.30;;;;;;4927970;29;20443;-77
2022/03/02 06:53:36;;;;;;;16.83;7.40;;;-4.10;96.30;;;;;;4921411;29;20420;-78
2022/03/02 06:56:05;;;;;;;13.53;7.23;;;-3.90;96.30;;;;;;4924446;29;20424;-78
2022/03/02 06:58:46;;;;;;;17.07;7.50;;;-3.60;96.30;;;;;;4914548;29;20932;-78
2022/03/02 07:01:13;;;;;;;11.23;6.80;;;-3.40;96.30;;;;;;4938141;29;20463;-78
2022/03/02 07:03:47;;;;;;;8.17;5.77;;;-3.20;96.30;;;;;;4921034;29;20475;-78
2022/03/02 07:06:14;;;;;;;10.67;6.53;;;-3.00;96.30;;;;;;4921297;29;20554;-76
2022/03/02 07:08:44;;;;;;;11.57;6.27;;;-2.90;96.30;;;;;;4937809;29;20415;-78
2022/03/02 07:11:09;;;;;;;11.90;6.60;;;-2.80;96.30;;;;;;4937968;29;20431;-78
2022/03/02 07:13:36;;;;;;;10.17;6.93;;;-2.60;96.30;;;;;;4920883;29;20422;-78
2022/03/02 07:16:02;;;;;;;9.77;6.00;;;-2.50;96.30;;;;;;4938060;29;20183;-78
2022/03/02 07:18:28;;;;;;;15.30;7.23;;;-2.30;96.30;;;;;;4937858;29;20479;-78
2022/03/02 07:20:55;;;;;;;11.00;5.77;;;-2.10;96.30;;;;;;4920735;29;20446;-77
2022/03/02 07:23:23;;;;;;;9.80;6.67;;;-2.00;96.30;;;;;;4920993;29;20796;-78
2022/03/02 07:25:53;;;;;;;10.10;5.83;;;-1.90;96.30;;;;;;4920713;29;20803;-78
2022/03/02 07:28:20;;;;;;;11.80;6.30;;;-1.80;96.30;;;;;;4937463;29;20412;-78
2022/03/02 07:30:46;;;;;;;12.27;8.13;;;-1.90;96.30;;;;;;4920556;29;20518;-78
2022/03/02 07:33:14;;;;;;;15.93;9.43;;;-1.90;96.30;;;;;;4920530;29;20518;-78
2022/03/02 07:35:40;;;;;;;18.70;11.20;;;-1.80;96.30;;;;;;4937686;29;20785;-77
2022/03/02 07:38:07;;;;;;;13.70;8.93;;;-1.80;96.30;;;;;;4937289;29;20427;-77
2022/03/02 07:40:33;;;;;;;14.87;9.30;;;-1.80;96.30;;;;;;4936883;29;20269;-77
2022/03/02 07:42:59;;;;;;;13.70;7.70;;;-1.80;96.30;;;;;;4937535;29;20419;-77
2022/03/02 07:45:25;;;;;;;14.50;6.83;;;-1.90;96.30;;;;;;4920230;29;20459;-77
2022/03/02 07:47:51;;;;;;;12.53;7.60;;;-1.80;96.30;;;;;;4917100;29;20427;-77
2022/03/02 07:50:16;;;;;;;12.80;6.80;;;-1.80;96.30;;;;;;4900482;29;20424;-77
2022/03/02 07:52:48;;;;;;;12.57;7.30;;;-1.90;96.30;;;;;;4901521;29;20207;-77
2022/03/02 07:55:15;;;;;;;12.27;7.47;;;-1.80;96.30;;;;;;4918679;29;20185;-76
2022/03/02 07:57:40;;;;;;;28.03;6.00;;;-1.50;96.30;;;;;;4919316;29;20524;-77
2022/03/02 08:00:11;;;;;;;14.10;7.00;;;-1.40;96.30;;;;;;4901349;29;20429;-77
2022/03/02 08:02:40;;;;;;;15.27;8.40;;;-1.40;96.30;;;;;;4901245;29;20203;-77
2022/03/02 08:05:06;;;;;;;13.37;8.17;;;-1.30;96.30;;;;;;4900867;29;20840;-75
2022/03/02 08:07:31;;;;;;;12.60;7.33;;;-1.30;96.30;;;;;;4919788;29;20523;-77
2022/03/02 08:09:57;;;;;;;17.00;7.23;;;-1.20;96.30;;;;;;4937642;29;20176;-78
2022/03/02 08:12:24;;;;;;;13.70;7.87;;;-1.00;96.30;;;;;;4936688;29;20609;-78
2022/03/02 08:14:50;;;;;;;13.93;8.13;;;-0.80;96.30;;;;;;4918123;29;20231;-77
2022/03/02 08:17:17;;;;;;;18.90;10.90;;;-0.70;96.30;;;;;;4934759;29;20431;-77
2022/03/02 08:19:43;;;;;;;12.60;8.30;;;-0.60;96.30;;;;;;4936719;29;20427;-77
2022/03/02 08:22:13;;;;;;;13.93;8.60;;;-0.40;96.30;;;;;;4936735;29;20435;-77
2022/03/02 08:24:44;;;;;;;16.60;8.30;;;-0.40;96.30;;;;;;4919690;29;20208;-78
2022/03/02 08:27:12;;;;;;;11.57;7.63;;;0.00;96.30;;;;;;4936833;29;20420;-78
2022/03/02 08:29:38;;;;;;;12.83;8.27;;;0.20;96.30;;;;;;4936959;29;20415;-78
2022/03/02 08:32:05;;;;;;;14.33;9.23;;;0.50;96.30;;;;;;4936776;29;20963;-75
2022/03/02 08:34:32;;;;;;;12.87;7.80;;;0.60;96.30;;;;;;4919495;29;20432;-75
2022/03/02 08:36:59;;;;;;;15.97;8.20;;;0.90;96.30;;;;;;4937575;29;20479;-74
2022/03/02 08:39:25;;;;;;;12.70;8.07;;;0.90;96.30;;;;;;4936530;29;20836;-77
2022/03/02 08:41:52;;;;;;;16.20;8.57;;;0.70;96.30;;;;;;4919150;29;20443;-77
2022/03/02 08:44:18;;;;;;;13.40;7.70;;;0.80;96.30;;;;;;4919820;29;20463;-78
2022/03/02 08:46:45;;;;;;;15.03;7.77;;;0.80;96.30;;;;;;4936476;29;20420;-78
2022/03/02 08:49:12;;;;;;;10.17;7.67;;;0.50;96.30;;;;;;4919187;29;20424;-78
2022/03/02 08:51:39;;;;;;;13.07;7.83;;;0.60;96.30;;;;;;4919289;29;20448;-78
2022/03/02 08:54:05;;;;;;;9.90;5.93;;;0.90;96.30;;;;;;4919232;29;20437;-75
2022/03/02 08:56:35;;;;;;;11.43;6.97;;;1.00;96.30;;;;;;4936129;29;20896;-75
2022/03/02 08:59:01;;;;;;;9.43;5.97;;;1.20;96.30;;;;;;4935953;29;20471;-75
2022/03/02 09:01:29;;;;;;;12.20;7.40;;;1.50;96.30;;;;;;4935704;29;20813;-75
2022/03/02 09:03:58;;;;;;;12.23;6.80;;;1.70;96.30;;;;;;4919010;29;20420;-75
2022/03/02 09:06:26;;;;;;;13.10;8.20;;;2.00;96.30;;;;;;4935945;29;20423;-76
2022/03/02 09:08:52;;;;;;;9.87;6.10;;;2.10;96.30;;;;;;4935723;29;20420;-76
2022/03/02 09:11:17;;;;;;;13.90;6.93;;;2.20;96.30;;;;;;4940182;29;20477;-78
2022/03/02 09:13:43;;;;;;;11.47;6.80;;;2.10;96.30;;;;;;4923000;29;20215;-78
2022/03/02 09:16:10;;;;;;;11.03;6.30;;;2.40;96.30;;;;;;4935746;29;20259;-78
2022/03/02 09:18:35;;;;;;;10.17;6.80;;;2.70;96.30;;;;;;4937489;29;20176;-78
2022/03/02 09:21:04;;;;;;;13.67;7.80;;;2.60;96.30;;;;;;4925214;29;20448;-78
2022/03/02 09:23:34;;;;;;;9.90;7.10;;;2.70;96.30;;;;;;4908762;29;20724;-77
2022/03/02 09:26:14;;;;;;;14.13;8.53;;;2.70;96.30;;;;;;4926098;29;20471;-78
2022/03/02 09:28:46;;;;;;;10.50;6.90;;;2.80;96.30;;;;;;4938044;29;20956;-78
2022/03/02 09:31:14;;;;;;;12.17;7.83;;;3.00;96.30;;;;;;4935394;29;20439;-78
2022/03/02 09:33:41;;;;;;;11.63;7.10;;;3.30;96.30;;;;;;4935600;29;20447;-78
2022/03/02 09:36:11;;;;;;;13.90;7.40;;;3.50;96.30;;;;;;4935481;29;20422;-78
2022/03/02 09:38:38;;;;;;;10.57;7.23;;;3.80;96.30;;;;;;4935248;29;20487;-78
2022/03/02 09:41:12;;;;;;;12.50;5.77;;;3.80;96.30;;;;;;4935222;29;20932;-78
2022/03/02 09:43:41;;;;;;;18.87;7.27;;;3.90;96.30;;;;;;4935475;29;20399;-78
2022/03/02 09:46:10;;;;;;;18.90;6.93;;;4.00;96.30;;;;;;4935258;29;20467;-78
2022/03/02 09:48:46;;;;;;;12.87;7.37;;;4.10;96.30;;;;;;4935082;29;20439;-78
2022/03/02 09:51:21;;;;;;;13.33;6.30;;;4.10;96.30;;;;;;4935073;29;20941;-78
2022/03/02 09:53:49;;;;;;;14.03;6.97;;;4.00;96.30;;;;;;4918432;29;20781;-78
2022/03/02 09:56:18;;;;;;;18.40;8.60;;;3.60;96.30;;;;;;4919449;29;20506;-77
2022/03/02 09:58:49;;;;;;;12.90;8.03;;;3.50;96.30;;;;;;4936445;29;20483;-78
2022/03/02 10:01:15;;;;;;;15.50;7.00;;;3.60;96.30;;;;;;4917909;29;20490;-78
2022/03/02 10:03:45;;;;;;;11.10;7.00;;;3.80;96.30;;;;;;4935105;29;20419;-78
2022/03/02 10:06:12;;;;;;;13.47;7.80;;;3.90;96.30;;;;;;4917978;29;20478;-78
2022/03/02 10:08:49;;;;;;;12.53;6.90;;;4.10;95.60;;;;;;4934855;29;20419;-78
2022/03/02 10:11:19;;;;;;;13.63;6.90;;;4.30;94.40;;;;;;4918046;29;20496;-78
2022/03/02 10:13:45;;;;;;;10.97;7.20;;;4.50;92.00;;;;;;4934569;29;20419;-78
2022/03/02 10:16:20;;;;;;;12.10;7.20;;;4.70;93.30;;;;;;4935194;29;20426;-78
2022/03/02 10:18:54;;;;;;;9.87;6.77;;;5.20;92.30;;;;;;4936194;29;20202;-78
2022/03/02 10:21:27;;;;;;;11.40;7.73;;;5.60;82.20;;;;;;4934934;29;20449;-77
2022/03/02 10:23:57;;;;;;;11.47;7.27;;;6.50;81.80;;;;;;4935343;29;20498;-79
2022/03/02 10:26:31;;;;;;;16.30;7.27;;;7.80;78.90;;;;;;4917763;29;20466;-78
2022/03/02 10:29:19;;;;;;;8.53;5.97;;;8.20;77.30;;;;;;4934512;29;20420;-78
2022/03/02 10:31:48;;;;;;;10.87;7.17;;;8.80;76.10;;;;;;4917521;29;20443;-78
2022/03/02 10:34:25;;;;;;;9.07;6.83;;;9.20;74.40;;;;;;4934553;29;20420;-78
2022/03/02 10:37:03;;;;;;;11.13;7.47;;;9.20;75.60;;;;;;4934774;29;20892;-78
2022/03/02 10:39:57;;;;;;;15.57;7.00;;;8.30;76.80;;;;;;4934689;29;20462;-79
2022/03/02 10:42:30;;;;;;;10.37;7.57;;;9.30;76.80;;;;;;4917532;29;20439;-78
2022/03/02 10:45:22;;;;;;;12.27;7.50;;;9.40;75.40;;;;;;4934615;29;20595;-78
2022/03/02 10:48:02;;;;;;;9.10;6.20;;;9.80;75.10;;;;;;4934487;29;20411;-78
2022/03/02 10:50:35;;;;;;;10.60;7.23;;;9.50;74.10;;;;;;4917479;29;20510;-78
2022/03/02 10:53:03;;;;;;;7.60;5.77;;;9.20;72.40;;;;;;4934747;29;20475;-78
2022/03/02 10:55:31;;;;;;;8.70;5.60;;;8.90;70.90;;;;;;4917617;29;20455;-78
2022/03/02 10:57:56;;;;;;;11.13;6.70;;;8.70;70.50;;;;;;4934449;29;20760;-78
2022/03/02 11:00:24;;;;;;;13.90;6.70;;;8.80;73.00;;;;;;4934477;29;20463;-78
2022/03/02 11:02:56;;;;;;;9.57;6.13;;;9.20;73.40;;;;;;4934574;29;20266;-78
2022/03/02 11:05:24;;;;;;;8.30;6.00;;;9.20;73.70;;;;;;4934560;29;20467;-78
2022/03/02 11:07:49;;;;;;;10.57;6.70;;;9.20;71.50;;;;;;4917349;29;20510;-78
2022/03/02 11:10:19;;;;;;;8.87;6.00;;;9.10;71.80;;;;;;4934608;29;20853;-78
2022/03/02 11:12:47;;;;;;;8.70;6.30;;;9.00;72.50;;;;;;4917904;29;20578;-78
2022/03/02 11:15:14;;;;;;;17.27;6.53;;;7.60;72.40;;;;;;4934520;29;20757;-78
2022/03/02 11:18:00;;;;;;;11.73;6.40;;;8.10;75.30;;;;;;4935101;29;20412;-76
2022/03/02 11:48:55;;;;;;;6.00;5.20;;;8.20;69.30;;;;;;5908794;23;20559;-76
2022/03/02 11:51:23;;;;;;;6.03;4.50;;;7.70;68.40;;;;;;4955432;29;21097;-76
2022/03/02 11:53:54;;;;;;;6.67;4.00;;;7.80;68.30;;;;;;4956557;29;20177;-76
2022/03/02 11:56:24;;;;;;;6.27;4.50;;;8.00;67.40;;;;;;4963339;29;20411;-77
2022/03/02 11:59:08;;;;;;;8.00;4.47;;;8.20;65.80;;;;;;4960051;29;20398;-76
2022/03/02 13:58:19;;;;;;;7.13;3.47;;;8.30;58.00;;;;;;4935993;29;20498;-78
2022/03/02 17:29:54;;;;;;;20.30;9.60;;;0.00;96.30;;;;;;4914429;29;20483;-77
2022/03/02 17:32:20;;;;;;;18.23;10.23;;;-0.10;96.30;;;;;;4931786;29;20436;-77
2022/03/02 17:34:46;;;;;;;16.07;10.07;;;-0.10;96.30;;;;;;4947368;29;20187;-76
2022/03/02 17:37:13;;;;;;;15.77;9.37;;;-0.20;96.30;;;;;;4949293;29;20211;-77
2022/03/02 17:39:41;;;;;;;15.30;10.20;;;-0.20;96.30;;;;;;4934380;29;20459;-76
2022/03/02 17:42:07;;;;;;;14.30;9.43;;;-0.30;96.30;;;;;;4935281;29;20428;-76
2022/03/02 17:44:33;;;;;;;17.43;8.47;;;-0.30;96.30;;;;;;4918039;29;20479;-76
2022/03/02 17:46:58;;;;;;;14.57;9.30;;;-0.30;96.30;;;;;;4935284;29;20416;-77
2022/03/02 17:49:25;;;;;;;16.40;10.10;;;-0.30;96.30;;;;;;4917398;29;20709;-76
2022/03/02 17:51:50;;;;;;;19.90;9.63;;;-0.30;96.30;;;;;;4950323;29;20199;-76
2022/03/02 17:54:16;;;;;;;12.23;8.83;;;-0.20;96.30;;;;;;4927418;29;20502;-77
2022/03/02 17:56:46;;;;;;;14.90;9.00;;;-0.30;96.30;;;;;;4953600;29;20261;-76
2022/03/02 17:59:12;;;;;;;14.97;8.90;;;-0.40;96.30;;;;;;4935842;29;20951;-76
2022/03/02 18:01:40;;;;;;;13.00;9.00;;;-0.40;96.30;;;;;;4953152;29;20441;-77
2022/03/02 18:04:06;;;;;;;17.33;8.70;;;-0.50;96.30;;;;;;4953989;29;20442;-76
2022/03/02 18:06:33;;;;;;;12.00;8.60;;;-0.50;96.30;;;;;;4953117;29;20481;-77
2022/03/02 18:08:58;;;;;;;12.37;9.47;;;-0.50;96.30;;;;;;4953441;29;20171;-77
2022/03/02 18:11:24;;;;;;;17.43;9.60;;;-0.50;96.30;;;;;;4953560;29;20445;-76
2022/03/02 18:13:50;;;;;;;14.07;9.70;;;-0.40;96.30;;;;;;4953717;29;20182;-75
2022/03/02 18:16:17;;;;;;;14.03;10.73;;;-0.30;96.30;;;;;;4953828;29;20203;-75
2022/03/02 18:18:45;;;;;;;15.33;10.97;;;-0.40;96.30;;;;;;4953431;29;20410;-77
2022/03/02 18:21:11;;;;;;;13.53;9.43;;;-0.60;96.30;;;;;;4953719;29;20433;-75
2022/03/02 18:23:37;;;;;;;12.50;9.50;;;-0.70;96.30;;;;;;4953587;29;20419;-76
2022/03/02 18:26:19;;;;;;;18.83;12.33;;;-0.90;96.30;;;;;;4953623;29;20659;-75
2022/03/02 18:28:44;;;;;;;22.07;17.50;;;-0.90;96.30;;;;;;4953121;29;20197;-75
2022/03/02 18:31:10;;;;;;;21.33;14.37;;;-0.90;96.30;;;;;;4936474;29;20443;-75
2022/03/02 18:33:36;;;;;;;15.60;11.80;;;-1.00;96.30;;;;;;4953628;29;20667;-76
2022/03/02 18:36:02;;;;;;;25.10;16.40;;;-1.10;96.30;;;;;;4956713;28;20183;-76
2022/03/02 18:38:28;;;;;;;17.80;12.73;;;-1.10;96.30;;;;;;4939840;29;20265;-75
2022/03/02 18:40:55;;;;;;;27.53;11.87;;;-1.20;96.30;;;;;;4957482;29;20465;-75
2022/03/02 18:43:20;;;;;;;16.47;11.07;;;-1.40;96.30;;;;;;4957242;29;20181;-75
2022/03/02 18:45:46;;;;;;;17.73;11.43;;;-1.40;96.30;;;;;;4957340;29;20457;-75
2022/03/02 18:48:12;;;;;;;16.63;11.13;;;-1.40;96.30;;;;;;4956549;29;20237;-78
2022/03/02 18:50:37;;;;;;;12.23;8.90;;;-1.50;96.30;;;;;;4957356;29;20202;-75
2022/03/02 18:53:03;;;;;;;14.43;9.90;;;-1.70;96.30;;;;;;4957384;29;20516;-78
2022/03/02 18:55:29;;;;;;;18.73;9.40;;;-1.90;96.30;;;;;;4940100;29;20205;-76
2022/03/02 18:57:56;;;;;;;14.97;10.57;;;-2.10;96.30;;;;;;4939559;29;20248;-75
2022/03/02 19:00:23;;;;;;;15.97;11.27;;;-2.30;96.30;;;;;;4957116;29;20186;-77
2022/03/02 19:02:49;;;;;;;20.13;11.37;;;-2.40;96.30;;;;;;4934261;29;20427;-75
2022/03/02 19:05:15;;;;;;;22.87;12.77;;;-2.40;96.30;;;;;;4950871;29;20450;-76
2022/03/02 19:07:43;;;;;;;16.67;12.23;;;-2.40;96.30;;;;;;4954597;29;20410;-76
2022/03/02 19:10:09;;;;;;;15.60;10.80;;;-2.40;96.30;;;;;;4935078;29;20418;-77
2022/03/02 19:12:36;;;;;;;16.30;9.90;;;-2.50;96.30;;;;;;4932828;29;20438;-75
2022/03/02 19:15:01;;;;;;;13.67;9.80;;;-2.60;96.30;;;;;;4952253;29;20434;-75
2022/03/02 19:17:27;;;;;;;15.00;9.53;;;-2.70;96.30;;;;;;4934424;29;20433;-75
2022/03/02 19:19:53;;;;;;;18.67;8.77;;;-2.80;96.30;;;;;;4945735;29;20668;-76
2022/03/02 19:22:20;;;;;;;13.00;9.23;;;-2.80;96.30;;;;;;4949017;29;20237;-75
2022/03/02 19:24:49;;;;;;;14.03;8.80;;;-2.80;96.30;;;;;;4956457;29;20194;-74
2022/03/02 19:27:20;;;;;;;17.80;9.20;;;-2.90;96.30;;;;;;4956305;29;20417;-75
2022/03/02 19:29:46;;;;;;;15.80;10.33;;;-2.90;96.30;;;;;;4928002;29;20999;-74
2022/03/02 19:32:14;;;;;;;20.03;10.20;;;-2.80;96.30;;;;;;4955779;29;20430;-74
2022/03/02 19:34:43;;;;;;;16.70;9.90;;;-2.70;96.30;;;;;;4956524;29;20441;-74
2022/03/02 19:37:10;;;;;;;12.97;9.60;;;-2.70;96.30;;;;;;4956515;29;20397;-74
2022/03/02 19:39:57;;;;;;;19.97;13.77;;;-2.70;96.30;;;;;;4956356;29;20406;-76
2022/03/02 19:42:28;;;;;;;17.90;11.97;;;-2.60;96.30;;;;;;4956573;29;20486;-74
2022/03/02 19:44:53;;;;;;;19.00;12.00;;;-2.40;96.30;;;;;;4939889;29;20454;-76
2022/03/02 19:47:54;;;;;;;20.93;13.70;;;-2.30;96.30;;;;;;4958256;28;20987;-76
2022/03/02 20:03:17;;;;;;;20.40;11.97;;;-2.40;96.30;;;;;;5556319;23;20495;-77
2022/03/02 20:05:42;;;;;;;19.47;12.80;;;-2.60;96.30;;;;;;4917827;29;20480;-75
2022/03/02 20:08:08;;;;;;;18.10;11.30;;;-2.70;96.30;;;;;;4917674;29;20511;-77
2022/03/02 20:10:33;;;;;;;18.80;11.50;;;-2.70;96.30;;;;;;4917842;29;20192;-77
2022/03/02 20:12:59;;;;;;;20.60;12.33;;;-2.80;96.30;;;;;;4932100;29;20252;-77
2022/03/02 20:15:24;;;;;;;18.00;12.23;;;-2.90;96.30;;;;;;4919760;29;20546;-77
2022/03/02 20:17:50;;;;;;;24.43;15.60;;;-3.10;96.30;;;;;;4936548;29;20266;-77
2022/03/02 20:20:16;;;;;;;24.37;16.33;;;-3.10;96.30;;;;;;4936680;29;20176;-74
2022/03/02 20:22:42;;;;;;;27.27;15.97;;;-3.10;96.30;;;;;;4936632;29;20184;-74
2022/03/02 20:25:08;;;;;;;25.37;15.43;;;-3.20;96.30;;;;;;4935308;29;20195;-75
2022/03/02 20:28:06;;;;;;;18.10;13.87;;;-3.40;96.30;;;;;;4917402;29;20515;-75
2022/03/02 20:30:34;;;;;;;19.00;13.00;;;-3.50;96.30;;;;;;4936604;29;20172;-76
2022/03/02 20:33:00;;;;;;;16.17;11.30;;;-3.50;96.30;;;;;;4936639;29;20833;-75
2022/03/02 20:35:26;;;;;;;12.90;8.77;;;-3.40;96.30;;;;;;4936471;29;20408;-75
2022/03/02 20:37:52;;;;;;;11.63;9.33;;;-3.30;96.30;;;;;;4936180;29;20422;-74
2022/03/02 20:40:19;;;;;;;12.90;9.53;;;-3.20;96.30;;;;;;4919295;29;20416;-74
2022/03/02 20:42:45;;;;;;;17.47;10.83;;;-3.20;96.30;;;;;;4936457;29;20255;-74
2022/03/02 20:45:10;;;;;;;19.70;13.07;;;-3.30;96.30;;;;;;4936106;29;20450;-74
2022/03/02 20:47:36;;;;;;;20.03;13.90;;;-3.40;96.30;;;;;;4936096;29;20399;-75
2022/03/02 20:50:02;;;;;;;19.53;14.40;;;-3.30;96.30;;;;;;4951897;29;20206;-74
2022/03/02 20:52:28;;;;;;;18.97;11.90;;;-3.40;96.30;;;;;;4940908;29;20616;-76
2022/03/02 20:54:53;;;;;;;16.93;11.83;;;-3.40;96.30;;;;;;4933583;29;20926;-74
2022/03/02 20:57:19;;;;;;;18.03;11.70;;;-3.50;96.30;;;;;;4916197;29;20241;-75
2022/03/02 20:59:44;;;;;;;17.63;10.43;;;-3.50;96.30;;;;;;4918890;29;20171;-75
2022/03/02 21:02:10;;;;;;;19.70;10.47;;;-3.40;96.30;;;;;;4935999;29;20210;-74
2022/03/02 21:04:36;;;;;;;17.30;11.87;;;-3.50;96.30;;;;;;4935826;29;20205;-74
2022/03/02 21:07:03;;;;;;;14.73;10.67;;;-3.60;96.30;;;;;;4935971;29;20848;-77
2022/03/02 21:09:28;;;;;;;18.30;10.80;;;-3.70;96.30;;;;;;4917959;29;20434;-77
2022/03/02 21:11:54;;;;;;;19.00;10.80;;;-3.80;96.30;;;;;;4935847;29;20708;-77
2022/03/02 21:14:19;;;;;;;17.80;10.57;;;-3.90;96.30;;;;;;4918475;29;20179;-77
2022/03/02 21:16:45;;;;;;;16.93;12.30;;;-4.10;96.30;;;;;;4934083;29;20291;-76
2022/03/02 21:19:10;;;;;;;18.43;12.50;;;-4.10;96.30;;;;;;4933238;29;20223;-77
2022/03/02 21:21:36;;;;;;;19.30;11.97;;;-4.10;96.30;;;;;;4935230;29;20218;-76
2022/03/02 21:24:01;;;;;;;22.67;13.00;;;-4.10;96.30;;;;;;4935094;29;20187;-76
2022/03/02 21:26:27;;;;;;;17.97;10.23;;;-4.10;96.30;;;;;;4917959;29;20246;-77
2022/03/02 21:28:52;;;;;;;16.83;10.03;;;-4.00;96.30;;;;;;4935373;29;20188;-77
2022/03/02 21:31:18;;;;;;;14.50;9.80;;;-3.90;96.30;;;;;;4918439;29;20199;-77
2022/03/02 21:33:45;;;;;;;14.60;10.63;;;-3.90;96.30;;;;;;4935422;29;20172;-77
2022/03/02 21:36:11;;;;;;;21.33;11.80;;;-3.80;96.30;;;;;;4935833;29;20414;-77
2022/03/02 21:38:37;;;;;;;23.57;14.40;;;-3.90;96.30;;;;;;4934992;29;20431;-76
2022/03/02 21:41:03;;;;;;;26.47;15.83;;;-4.00;96.30;;;;;;4935789;29;20532;-76
2022/03/02 21:43:29;;;;;;;25.23;15.47;;;-4.10;96.30;;;;;;4915879;29;20431;-77
2022/03/02 21:45:55;;;;;;;22.73;13.73;;;-4.30;96.30;;;;;;4916233;29;20279;-77
2022/03/02 21:48:22;;;;;;;17.73;11.23;;;-4.30;96.30;;;;;;4898974;29;20421;-77
2022/03/02 21:50:48;;;;;;;20.87;10.93;;;-4.20;96.30;;;;;;4916169;29;20470;-78
2022/03/02 21:53:14;;;;;;;18.97;10.77;;;-4.10;96.30;;;;;;4899242;29;20431;-77
2022/03/02 21:55:39;;;;;;;19.40;10.30;;;-3.90;96.30;;;;;;4916216;29;20184;-75
2022/03/02 21:58:05;;;;;;;19.53;11.40;;;-4.00;96.30;;;;;;4915877;29;20793;-74
2022/03/02 22:00:33;;;;;;;19.43;11.10;;;-4.00;96.30;;;;;;4923824;29;20198;-74
2022/03/02 22:03:00;;;;;;;20.90;11.23;;;-4.20;96.30;;;;;;4934886;29;20195;-74
2022/03/02 22:05:25;;;;;;;21.47;11.63;;;-4.30;96.30;;;;;;4934915;29;20478;-74
2022/03/02 22:07:51;;;;;;;17.70;11.50;;;-4.40;96.30;;;;;;4934868;29;20894;-75
2022/03/02 22:10:16;;;;;;;19.30;12.10;;;-4.40;96.30;;;;;;4917091;29;20255;-74
2022/03/02 22:12:42;;;;;;;24.83;13.40;;;-4.30;96.30;;;;;;4917990;29;20652;-74
2022/03/02 22:15:08;;;;;;;22.97;13.43;;;-4.50;96.30;;;;;;4934895;29;20262;-74
2022/03/02 22:17:35;;;;;;;22.20;15.53;;;-4.60;96.30;;;;;;4934652;29;20656;-74
2022/03/02 22:20:01;;;;;;;23.10;14.20;;;-4.80;96.30;;;;;;4934784;29;20796;-74
2022/03/02 22:22:26;;;;;;;23.07;12.97;;;-4.90;96.30;;;;;;4934778;29;20439;-74
2022/03/02 22:24:52;;;;;;;17.17;12.03;;;-4.90;96.30;;;;;;4934755;29;20982;-74
2022/03/02 22:27:18;;;;;;;18.90;12.10;;;-4.80;96.30;;;;;;4934782;29;20250;-74
2022/03/02 22:29:44;;;;;;;18.13;12.23;;;-4.90;96.30;;;;;;4934658;29;20178;-74
2022/03/02 22:32:10;;;;;;;20.30;13.10;;;-4.80;96.30;;;;;;4934616;29;20516;-74
2022/03/02 22:34:36;;;;;;;23.93;13.80;;;-4.80;96.30;;;;;;4934691;29;20174;-74
2022/03/02 22:37:04;;;;;;;26.03;14.73;;;-4.80;96.30;;;;;;4934688;29;20641;-74
2022/03/02 22:39:29;;;;;;;27.40;14.13;;;-4.80;96.30;;;;;;4934557;29;20443;-75
2022/03/02 22:41:55;;;;;;;26.27;14.90;;;-4.90;96.30;;;;;;4934582;29;21014;-74
2022/03/02 22:44:21;;;;;;;20.63;11.30;;;-5.00;96.30;;;;;;4934637;29;20638;-74
2022/03/02 22:46:48;;;;;;;23.30;12.70;;;-5.00;96.30;;;;;;4934600;29;20195;-75
2022/03/02 22:49:14;;;;;;;25.03;14.53;;;-5.00;96.30;;;;;;4934510;29;20226;-74
2022/03/02 22:51:41;;;;;;;23.13;13.00;;;-4.90;96.30;;;;;;4917449;29;20490;-75
2022/03/02 22:54:06;;;;;;;19.30;12.20;;;-4.80;96.30;;;;;;4934547;29;20427;-74